Time;durP1;ratioP1;P1;durP2;ratioP2;P2;SDS_P1;SDS_P2;PMS_P1;PMS_P2;Temp;Humidity;BMP_temperature;BMP_pressure;BME280_temperature;BME280_humidity;BME280_pressure;Samples;Min_cycle;Max_cycle;Signal;HPM_P1;HPM_P2
2022/06/18 00:01:20;;;;;;;3.97;3.10;;;18.00;69.20;;;;;;5110932;27;20114;-48
2022/06/18 00:03:50;;;;;;;7.50;3.70;;;18.00;69.50;;;;;;5108548;27;20375;-46
2022/06/18 00:06:17;;;;;;;4.43;3.60;;;18.00;70.00;;;;;;5089861;28;20482;-47
2022/06/18 00:08:44;;;;;;;6.43;3.80;;;17.90;70.30;;;;;;5090468;27;20050;-45
2022/06/18 00:13:56;;;;;;;7.65;3.95;;;17.80;70.30;;;;;;5110037;28;20470;-46
2022/06/18 00:16:23;;;;;;;6.45;3.38;;;17.80;70.40;;;;;;5110217;28;20020;-46
2022/06/18 00:18:52;;;;;;;6.65;4.15;;;17.80;70.30;;;;;;5099499;27;20036;-46
2022/06/18 00:21:27;;;;;;;5.15;3.95;;;17.80;70.50;;;;;;5090039;28;20107;-45
2022/06/18 00:23:54;;;;;;;5.53;3.97;;;17.80;70.70;;;;;;5090102;28;20457;-45
2022/06/18 00:26:21;;;;;;;6.00;3.75;;;17.70;70.70;;;;;;5089689;28;20049;-47
2022/06/18 00:28:48;;;;;;;5.28;3.67;;;17.70;70.70;;;;;;5111803;27;20039;-47
2022/06/18 00:31:15;;;;;;;6.57;3.72;;;17.70;70.90;;;;;;5112147;27;20062;-46
2022/06/18 00:33:42;;;;;;;6.93;4.30;;;17.70;70.90;;;;;;5073702;28;20364;-46
2022/06/18 00:36:17;;;;;;;8.20;3.92;;;17.70;70.80;;;;;;5089540;28;20508;-46
2022/06/18 00:38:47;;;;;;;6.63;3.58;;;17.70;70.90;;;;;;5096397;28;20334;-46
2022/06/18 00:41:23;;;;;;;6.38;4.10;;;17.70;71.00;;;;;;5109347;28;20030;-46
2022/06/18 00:43:59;;;;;;;3.97;3.35;;;17.60;71.00;;;;;;5125547;27;20049;-45
2022/06/18 00:46:56;;;;;;;6.50;3.65;;;17.60;71.30;;;;;;5130530;27;20027;-47
2022/06/18 00:49:43;;;;;;;4.95;3.58;;;17.70;71.70;;;;;;5089699;28;20048;-45
2022/06/18 00:52:32;;;;;;;6.68;5.20;;;17.60;71.80;;;;;;5078610;27;20034;-45
2022/06/18 00:55:15;;;;;;;5.90;4.57;;;17.60;71.90;;;;;;5109678;28;20112;-45
2022/06/18 00:57:59;;;;;;;6.18;4.28;;;17.60;71.90;;;;;;5109136;28;20040;-46
2022/06/18 01:00:47;;;;;;;5.28;4.13;;;17.50;72.30;;;;;;5124369;27;20058;-45
2022/06/18 01:03:25;;;;;;;8.60;4.60;;;17.50;72.00;;;;;;5099836;28;20035;-45
2022/06/18 01:05:57;;;;;;;7.13;3.58;;;17.50;72.00;;;;;;5118710;28;20034;-46
2022/06/18 01:08:28;;;;;;;5.75;3.92;;;17.50;72.00;;;;;;5124557;28;20031;-47
2022/06/18 01:11:02;;;;;;;6.07;3.72;;;17.50;72.30;;;;;;5090683;28;20487;-47
2022/06/18 01:13:34;;;;;;;7.85;4.25;;;17.50;72.20;;;;;;5120704;28;20031;-46
2022/06/18 01:16:03;;;;;;;6.25;3.78;;;17.50;72.10;;;;;;5111874;28;20043;-47
2022/06/18 01:18:31;;;;;;;5.18;3.70;;;17.50;72.00;;;;;;5115926;28;20033;-48
2022/06/18 01:21:07;;;;;;;9.48;4.45;;;17.50;72.10;;;;;;5091835;28;20031;-46
2022/06/18 01:24:23;;;;;;;6.25;4.13;;;17.60;72.00;;;;;;5091398;28;20027;-45
2022/06/18 01:26:55;;;;;;;5.20;3.58;;;17.60;72.10;;;;;;5007354;28;20045;-46
2022/06/18 01:29:25;;;;;;;8.48;4.72;;;17.60;72.30;;;;;;5026299;28;20033;-48
2022/06/18 01:31:51;;;;;;;7.30;4.18;;;17.60;72.20;;;;;;5026734;28;20087;-45
2022/06/18 01:34:20;;;;;;;4.32;3.72;;;17.60;72.20;;;;;;5006465;28;20037;-47
2022/06/18 01:36:47;;;;;;;5.43;4.38;;;17.60;72.30;;;;;;5007316;28;20029;-46
2022/06/18 01:39:25;;;;;;;7.03;4.70;;;17.60;72.50;;;;;;5007410;28;20034;-46
2022/06/18 01:42:01;;;;;;;6.43;4.38;;;17.60;72.50;;;;;;5006906;28;20065;-45
2022/06/18 01:44:39;;;;;;;5.18;3.95;;;17.60;72.50;;;;;;5024678;28;20056;-46
2022/06/18 01:47:20;;;;;;;7.47;4.88;;;17.50;72.60;;;;;;5026790;28;20490;-46
2022/06/18 01:50:09;;;;;;;7.97;4.45;;;17.50;72.60;;;;;;5026822;28;20049;-45
2022/06/18 01:52:43;;;;;;;9.15;4.50;;;17.50;72.80;;;;;;5026285;28;20164;-46
2022/06/18 01:55:31;;;;;;;5.05;4.55;;;17.50;73.00;;;;;;5010476;28;20046;-45
2022/06/18 01:58:03;;;;;;;7.85;4.47;;;17.50;73.10;;;;;;4994454;28;20096;-45
2022/06/18 02:00:31;;;;;;;7.10;4.63;;;17.40;73.20;;;;;;5014005;28;20030;-46
2022/06/18 02:03:00;;;;;;;5.55;4.85;;;17.40;73.30;;;;;;5056739;27;20126;-48
2022/06/18 02:05:27;;;;;;;9.35;5.47;;;17.40;73.50;;;;;;5113977;27;20324;-46
2022/06/18 02:07:56;;;;;;;5.30;4.30;;;17.40;73.60;;;;;;5095117;27;20032;-46
2022/06/18 02:10:30;;;;;;;6.32;5.47;;;17.40;73.90;;;;;;5125205;27;20028;-45
2022/06/18 02:13:00;;;;;;;8.45;5.68;;;17.40;73.90;;;;;;5112397;28;20031;-45
2022/06/18 02:15:36;;;;;;;7.13;5.07;;;17.40;74.10;;;;;;5112864;28;20065;-45
2022/06/18 02:18:08;;;;;;;6.07;5.32;;;17.30;74.30;;;;;;5114266;27;20031;-46
2022/06/18 02:20:49;;;;;;;8.20;4.70;;;17.30;74.20;;;;;;5121864;27;20020;-45
2022/06/18 02:23:17;;;;;;;7.03;5.93;;;17.30;74.50;;;;;;5105611;27;20122;-49
2022/06/18 02:25:45;;;;;;;5.35;4.50;;;17.30;74.50;;;;;;5099153;27;20038;-46
2022/06/18 02:28:32;;;;;;;6.35;5.70;;;17.30;74.70;;;;;;5120421;27;20023;-45
2022/06/18 02:31:02;;;;;;;9.70;6.18;;;17.30;74.90;;;;;;5117167;27;20019;-48
2022/06/18 02:33:51;;;;;;;6.25;5.63;;;17.20;75.00;;;;;;5120955;27;20661;-45
2022/06/18 02:36:28;;;;;;;7.47;5.13;;;17.30;75.00;;;;;;5104991;27;20101;-46
2022/06/18 02:39:03;;;;;;;6.40;4.53;;;17.20;75.00;;;;;;5121096;27;20084;-45
2022/06/18 02:41:31;;;;;;;6.88;5.40;;;17.20;75.00;;;;;;5123223;27;20023;-46
2022/06/18 02:43:58;;;;;;;7.82;5.18;;;17.20;75.20;;;;;;5103627;27;20027;-46
2022/06/18 02:46:25;;;;;;;6.55;5.40;;;17.20;75.20;;;;;;5120846;27;20057;-45
2022/06/18 02:48:52;;;;;;;7.97;5.97;;;17.20;75.30;;;;;;5120238;27;20070;-45
2022/06/18 02:51:19;;;;;;;12.60;5.20;;;17.20;75.40;;;;;;5121367;27;20023;-46
2022/06/18 02:53:46;;;;;;;7.68;4.82;;;17.20;75.60;;;;;;5102671;27;20104;-46
2022/06/18 02:56:15;;;;;;;7.25;5.22;;;17.20;75.60;;;;;;5120481;27;20015;-46
2022/06/18 02:58:45;;;;;;;6.90;5.55;;;17.20;75.70;;;;;;5130845;27;20051;-46
2022/06/18 03:01:15;;;;;;;7.85;5.10;;;17.20;75.70;;;;;;5119833;27;20026;-46
2022/06/18 03:03:47;;;;;;;6.00;5.18;;;17.20;75.70;;;;;;5123009;27;20118;-46
2022/06/18 03:06:14;;;;;;;7.10;5.45;;;17.20;75.80;;;;;;5130539;27;20019;-46
2022/06/18 03:08:41;;;;;;;6.38;5.10;;;17.30;75.80;;;;;;5131982;27;20042;-45
2022/06/18 03:13:57;;;;;;;7.20;5.28;;;17.20;75.80;;;;;;5111224;28;20379;-46
2022/06/18 03:16:24;;;;;;;8.05;6.30;;;17.20;76.00;;;;;;5111250;27;20153;-46
2022/06/18 03:18:54;;;;;;;7.47;5.75;;;17.20;76.10;;;;;;5092969;28;20055;-45
2022/06/18 03:21:38;;;;;;;;;;;17.20;76.30;;;;;;5111354;28;20026;-47
2022/06/18 03:24:06;;;;;;;7.80;5.60;;;17.10;76.60;;;;;;5124038;27;19908;-46
2022/06/18 03:26:37;;;;;;;6.88;5.72;;;17.10;76.70;;;;;;5131139;27;20031;-45
2022/06/18 03:29:07;;;;;;;6.55;5.85;;;17.10;76.90;;;;;;5098781;28;20542;-45
2022/06/18 03:31:38;;;;;;;6.82;6.15;;;17.10;77.10;;;;;;5092884;28;20027;-45
2022/06/18 03:34:05;;;;;;;7.97;5.72;;;17.10;77.40;;;;;;5111486;27;20032;-46
2022/06/18 03:36:32;;;;;;;6.75;5.93;;;17.00;77.50;;;;;;5111264;28;20144;-45
2022/06/18 03:38:59;;;;;;;7.53;6.82;;;17.10;77.70;;;;;;5092624;28;20034;-48
2022/06/18 03:41:29;;;;;;;7.07;6.22;;;17.00;77.80;;;;;;5110893;28;20030;-45
2022/06/18 03:43:58;;;;;;;8.63;6.72;;;17.00;78.10;;;;;;5120123;27;20035;-46
2022/06/18 03:46:25;;;;;;;8.77;6.97;;;17.00;78.20;;;;;;5131522;27;20027;-45
2022/06/18 03:49:17;;;;;;;9.13;7.35;;;17.00;78.20;;;;;;5101036;28;20457;-46
2022/06/18 03:51:43;;;;;;;9.35;7.05;;;17.00;78.40;;;;;;5092910;28;20044;-46
2022/06/18 03:54:10;;;;;;;10.05;7.63;;;17.10;78.50;;;;;;5088816;28;20040;-45
2022/06/18 03:56:37;;;;;;;10.95;8.00;;;17.00;78.70;;;;;;5090442;28;20020;-45
2022/06/18 03:59:04;;;;;;;8.55;7.75;;;17.10;78.70;;;;;;5102100;28;20024;-46
2022/06/18 04:01:33;;;;;;;8.40;7.57;;;17.10;78.90;;;;;;5092756;28;20029;-45
2022/06/18 04:04:00;;;;;;;9.52;7.95;;;17.10;79.00;;;;;;5093504;28;20119;-48
2022/06/18 04:06:27;;;;;;;9.85;8.77;;;17.10;79.00;;;;;;5088939;28;20031;-45
2022/06/18 04:08:54;;;;;;;9.48;8.20;;;17.10;79.20;;;;;;5087357;28;20071;-45
2022/06/18 04:11:21;;;;;;;14.68;8.90;;;17.20;79.20;;;;;;5110107;28;20080;-46
2022/06/18 04:13:50;;;;;;;12.23;10.02;;;17.20;79.30;;;;;;5091126;28;20036;-46
2022/06/18 04:16:17;;;;;;;10.55;9.40;;;17.20;79.60;;;;;;5109469;28;20345;-45
2022/06/18 04:18:44;;;;;;;9.68;8.77;;;17.10;79.80;;;;;;5096129;28;20065;-47
2022/06/18 04:21:10;;;;;;;10.48;9.40;;;17.10;80.10;;;;;;5089656;28;20333;-47
2022/06/18 04:23:40;;;;;;;11.18;9.35;;;17.20;80.10;;;;;;5089532;28;20031;-46
2022/06/18 04:26:07;;;;;;;14.93;11.40;;;17.10;80.30;;;;;;5089710;28;20032;-46
2022/06/18 04:28:36;;;;;;;13.38;11.45;;;17.10;80.90;;;;;;5099312;28;20503;-46
2022/06/18 04:31:04;;;;;;;12.80;11.05;;;17.10;81.30;;;;;;5110003;28;20027;-44
2022/06/18 04:33:31;;;;;;;14.40;12.05;;;17.20;81.70;;;;;;5090535;28;20058;-47
2022/06/18 04:35:58;;;;;;;13.95;12.50;;;17.10;82.20;;;;;;5092120;28;20023;-47
2022/06/18 04:38:27;;;;;;;13.85;12.45;;;17.20;82.40;;;;;;5082914;28;20024;-46
2022/06/18 04:40:54;;;;;;;17.88;14.38;;;17.30;82.70;;;;;;5071856;28;20024;-45
2022/06/18 04:43:20;;;;;;;21.42;14.45;;;17.30;83.00;;;;;;5089901;28;20024;-47
2022/06/18 04:45:47;;;;;;;17.90;16.10;;;17.30;83.20;;;;;;5089059;28;20169;-47
2022/06/18 04:48:14;;;;;;;14.82;13.52;;;17.40;83.40;;;;;;5089681;28;20043;-45
2022/06/18 04:50:40;;;;;;;16.00;14.23;;;17.40;83.50;;;;;;5089164;28;20024;-47
2022/06/18 04:53:08;;;;;;;17.65;14.43;;;17.40;83.50;;;;;;5071256;28;20040;-45
2022/06/18 04:55:35;;;;;;;17.40;15.65;;;17.50;83.40;;;;;;5072579;28;20510;-45
2022/06/18 04:58:02;;;;;;;18.63;16.38;;;17.50;83.60;;;;;;5109452;28;20046;-48
2022/06/18 05:00:28;;;;;;;15.30;13.75;;;17.60;83.50;;;;;;5108143;28;20353;-45
2022/06/18 05:02:54;;;;;;;15.82;14.25;;;17.70;83.50;;;;;;5098955;28;20025;-46
2022/06/18 05:05:25;;;;;;;16.42;14.52;;;17.80;83.50;;;;;;5089172;28;20032;-45
2022/06/18 05:07:53;;;;;;;17.70;15.82;;;17.80;83.50;;;;;;5071397;28;20039;-46
2022/06/18 05:10:21;;;;;;;16.52;14.82;;;17.80;83.50;;;;;;5089031;28;20461;-45
2022/06/18 05:12:46;;;;;;;19.33;15.82;;;17.90;83.40;;;;;;5089432;28;20055;-44
2022/06/18 05:15:13;;;;;;;17.50;15.45;;;18.00;83.30;;;;;;5072093;28;20083;-46
2022/06/18 05:17:46;;;;;;;20.30;15.38;;;18.00;83.40;;;;;;5071549;28;20030;-46
2022/06/18 05:20:23;;;;;;;20.80;17.50;;;18.10;83.30;;;;;;5088843;28;20055;-46
2022/06/18 05:22:53;;;;;;;19.10;17.00;;;18.10;83.10;;;;;;5088806;28;20024;-49
2022/06/18 05:25:20;;;;;;;19.38;17.38;;;18.20;83.20;;;;;;5089125;28;20503;-45
2022/06/18 05:27:47;;;;;;;22.77;18.65;;;18.20;83.10;;;;;;5075136;28;20032;-48
2022/06/18 05:30:21;;;;;;;19.23;16.83;;;18.10;83.20;;;;;;5092349;28;20103;-46
2022/06/18 05:32:47;;;;;;;20.23;17.48;;;18.30;83.40;;;;;;5092098;28;20048;-46
2022/06/18 05:35:13;;;;;;;24.02;17.58;;;18.30;83.40;;;;;;5091670;28;20032;-45
2022/06/18 05:37:40;;;;;;;21.00;18.08;;;18.30;83.30;;;;;;5083173;28;20038;-49
2022/06/18 05:40:12;;;;;;;22.80;16.25;;;18.40;83.30;;;;;;5102487;28;20020;-48
2022/06/18 05:42:39;;;;;;;18.25;16.05;;;18.60;82.90;;;;;;5100149;28;20028;-46
2022/06/18 05:45:08;;;;;;;22.48;16.75;;;18.80;82.20;;;;;;5102058;28;20081;-48
2022/06/18 05:47:35;;;;;;;19.80;15.88;;;19.10;81.30;;;;;;5101682;28;20085;-46
2022/06/18 05:50:06;;;;;;;22.33;15.73;;;19.30;80.70;;;;;;5100895;28;20034;-47
2022/06/18 05:52:31;;;;;;;20.25;15.10;;;19.60;80.10;;;;;;5104840;27;20035;-45
2022/06/18 05:54:58;;;;;;;16.83;14.23;;;19.60;78.90;;;;;;5121377;27;20063;-45
2022/06/18 05:57:25;;;;;;;16.48;14.73;;;19.70;79.00;;;;;;5121825;27;20068;-46
2022/06/18 05:59:52;;;;;;;21.55;14.52;;;19.70;78.10;;;;;;5122733;27;20023;-46
2022/06/18 06:02:20;;;;;;;22.77;14.90;;;19.70;78.30;;;;;;5119139;27;20035;-46
2022/06/18 06:04:48;;;;;;;22.23;15.15;;;19.90;77.90;;;;;;5103455;27;20027;-46
2022/06/18 06:07:34;;;;;;;21.80;14.63;;;19.80;78.00;;;;;;5122371;27;20422;-48
2022/06/18 06:13:03;;;;;;;23.50;15.32;;;19.90;77.70;;;;;;5123718;27;20038;-46
2022/06/18 06:15:28;;;;;;;15.95;12.80;;;19.90;76.90;;;;;;5119409;27;20031;-46
2022/06/18 06:17:55;;;;;;;18.08;12.98;;;20.00;76.70;;;;;;5120649;27;20046;-45
2022/06/18 06:20:31;;;;;;;18.58;13.45;;;20.40;76.10;;;;;;5123404;27;20035;-47
2022/06/18 06:23:02;;;;;;;16.63;10.18;;;20.50;74.60;;;;;;5102449;27;20106;-46
2022/06/18 06:25:29;;;;;;;22.25;11.18;;;20.50;74.30;;;;;;5119284;27;20023;-48
2022/06/18 06:27:55;;;;;;;14.85;11.23;;;20.60;74.10;;;;;;5100626;27;20109;-47
2022/06/18 06:30:22;;;;;;;15.45;10.82;;;20.80;73.70;;;;;;5112723;27;20119;-47
2022/06/18 06:32:49;;;;;;;16.90;9.70;;;20.60;73.20;;;;;;5097758;27;20113;-46
2022/06/18 06:35:19;;;;;;;15.30;10.20;;;20.70;72.50;;;;;;5126338;27;20038;-46
2022/06/18 06:37:45;;;;;;;15.50;10.88;;;20.80;72.70;;;;;;5120156;27;20434;-48
2022/06/18 06:40:13;;;;;;;14.95;9.15;;;20.90;73.10;;;;;;5098252;27;20110;-46
2022/06/18 06:42:51;;;;;;;13.57;8.25;;;21.10;71.70;;;;;;5097170;27;20020;-47
2022/06/18 06:45:21;;;;;;;15.70;8.48;;;21.10;70.50;;;;;;5092802;27;20103;-48
2022/06/18 06:47:48;;;;;;;14.10;8.55;;;21.20;71.20;;;;;;5124188;27;20110;-46
2022/06/18 06:50:16;;;;;;;14.27;8.70;;;21.30;70.00;;;;;;5111703;28;20050;-46
2022/06/18 06:52:48;;;;;;;8.50;7.10;;;21.30;70.30;;;;;;5111406;28;20101;-46
2022/06/18 06:58:25;;;;;;;11.98;6.95;;;21.40;68.90;;;;;;5113499;27;20079;-48
2022/06/18 07:00:59;;;;;;;19.52;7.78;;;21.50;70.30;;;;;;5095082;28;20077;-49
2022/06/18 07:03:33;;;;;;;13.65;9.35;;;21.60;70.70;;;;;;5118508;27;20035;-49
2022/06/18 07:06:01;;;;;;;17.15;8.13;;;21.70;69.90;;;;;;5101109;27;20608;-46
2022/06/18 07:08:31;;;;;;;15.40;8.35;;;21.80;70.50;;;;;;5119765;27;20031;-47
2022/06/18 07:10:59;;;;;;;14.50;9.20;;;21.70;72.10;;;;;;5126865;27;20066;-46
2022/06/18 07:13:25;;;;;;;14.07;8.85;;;21.70;72.20;;;;;;5117481;27;20573;-47
2022/06/18 07:15:53;;;;;;;14.23;9.55;;;21.60;72.00;;;;;;5107319;27;20505;-46
2022/06/18 07:18:31;;;;;;;14.90;7.05;;;21.60;71.80;;;;;;5120580;27;20114;-47
2022/06/18 07:20:58;;;;;;;22.13;8.38;;;21.80;69.90;;;;;;5108122;27;20026;-46
2022/06/18 07:23:28;;;;;;;11.07;7.72;;;21.90;68.60;;;;;;5114180;27;20024;-45
2022/06/18 07:25:55;;;;;;;11.10;7.03;;;21.90;67.40;;;;;;5125877;27;20089;-45
2022/06/18 07:28:25;;;;;;;13.57;6.90;;;22.10;68.40;;;;;;5120112;27;20475;-48
2022/06/18 07:30:52;;;;;;;8.52;6.15;;;22.40;67.60;;;;;;5121612;27;20028;-48
2022/06/18 07:33:27;;;;;;;12.18;6.90;;;22.50;67.80;;;;;;5121513;27;20498;-47
2022/06/18 07:35:54;;;;;;;10.23;5.25;;;22.50;69.00;;;;;;5123549;27;20023;-47
2022/06/18 07:38:23;;;;;;;9.85;5.28;;;22.60;68.50;;;;;;5116877;27;20031;-46
2022/06/18 07:40:51;;;;;;;;;;;22.40;69.10;;;;;;5113890;27;20027;-45
2022/06/18 07:43:24;;;;;;;9.27;4.30;;;22.60;69.00;;;;;;5100542;27;19953;-46
2022/06/18 07:45:51;;;;;;;9.00;4.13;;;22.70;68.30;;;;;;5126361;27;20510;-46
2022/06/18 07:48:21;;;;;;;7.55;4.10;;;22.90;69.30;;;;;;5127276;27;20418;-45
2022/06/18 07:50:48;;;;;;;7.18;4.13;;;23.00;67.70;;;;;;5117475;27;20031;-47
2022/06/18 07:53:20;;;;;;;14.13;4.40;;;22.90;67.00;;;;;;5131006;27;20636;-46
2022/06/18 07:55:47;;;;;;;13.88;5.07;;;22.90;68.00;;;;;;5124450;27;20116;-46
2022/06/18 07:58:18;;;;;;;9.32;4.03;;;23.00;67.80;;;;;;5110891;28;20417;-46
2022/06/18 08:00:47;;;;;;;8.45;3.78;;;23.30;68.40;;;;;;5095484;27;20026;-45
2022/06/18 08:03:15;;;;;;;;;;;23.50;66.70;;;;;;5110989;28;20020;-47
2022/06/18 08:05:43;;;;;;;8.18;3.65;;;23.80;65.90;;;;;;5099122;27;19911;-46
2022/06/18 08:08:12;;;;;;;11.05;4.15;;;23.70;65.10;;;;;;5110658;27;20035;-45
2022/06/18 08:10:41;;;;;;;9.88;4.60;;;23.40;66.30;;;;;;5094639;28;20070;-45
2022/06/18 08:13:11;;;;;;;12.80;4.20;;;23.60;65.90;;;;;;5115170;27;20034;-48
2022/06/18 08:15:38;;;;;;;6.90;3.90;;;23.70;67.00;;;;;;5119511;27;20367;-47
2022/06/18 08:18:05;;;;;;;7.30;3.05;;;24.00;64.00;;;;;;5119336;27;20460;-49
2022/06/18 08:20:33;;;;;;;7.43;2.80;;;24.20;63.70;;;;;;5104870;27;20061;-46
2022/06/18 08:23:02;;;;;;;10.43;3.00;;;24.50;63.50;;;;;;5123848;27;20015;-46
2022/06/18 08:25:31;;;;;;;7.05;3.08;;;24.80;62.80;;;;;;5118290;27;20020;-46
2022/06/18 08:28:04;;;;;;;6.97;2.55;;;24.90;62.60;;;;;;5120134;27;20027;-48
2022/06/18 08:30:32;;;;;;;8.93;3.25;;;24.90;62.40;;;;;;5120287;27;20042;-46
2022/06/18 08:32:58;;;;;;;6.32;2.97;;;25.20;60.40;;;;;;5110250;28;20048;-46
2022/06/18 08:35:24;;;;;;;4.55;2.20;;;25.30;61.10;;;;;;5110804;27;20027;-47
2022/06/18 08:37:52;;;;;;;15.85;4.28;;;25.10;62.50;;;;;;5129940;27;20019;-46
2022/06/18 08:40:46;;;;;;;9.10;2.97;;;25.20;60.90;;;;;;5094080;27;20564;-46
2022/06/18 08:43:40;;;;;;;4.88;3.13;;;25.10;62.10;;;;;;5129016;27;20038;-46
2022/06/18 08:46:17;;;;;;;4.85;2.38;;;25.20;61.70;;;;;;5113203;27;20055;-46
2022/06/18 08:48:56;;;;;;;7.97;2.72;;;25.40;62.00;;;;;;5109736;28;20062;-46
2022/06/18 08:51:32;;;;;;;7.13;2.70;;;25.60;60.90;;;;;;5109735;28;20034;-46
2022/06/18 08:54:12;;;;;;;5.45;2.78;;;25.70;60.70;;;;;;5122604;27;20373;-46
2022/06/18 08:56:58;;;;;;;6.95;2.53;;;25.20;62.70;;;;;;5108916;28;20057;-46
2022/06/18 08:59:52;;;;;;;5.43;2.40;;;25.00;63.10;;;;;;5118046;27;20436;-47
2022/06/18 09:02:52;;;;;;;6.40;2.97;;;24.90;63.40;;;;;;5108547;28;20122;-46
2022/06/18 09:05:32;;;;;;;4.53;2.20;;;24.50;65.10;;;;;;5109171;27;20062;-46
2022/06/18 09:08:16;;;;;;;7.43;2.65;;;24.90;64.20;;;;;;5109539;28;20444;-46
2022/06/18 09:11:06;;;;;;;5.93;2.45;;;24.40;63.90;;;;;;5112086;28;20365;-46
2022/06/18 09:13:57;;;;;;;4.25;1.98;;;24.30;64.90;;;;;;5115292;28;20027;-46
2022/06/18 09:16:34;;;;;;;5.93;2.50;;;24.60;64.80;;;;;;5114341;28;20032;-48
2022/06/18 09:19:06;;;;;;;5.82;2.67;;;24.90;64.00;;;;;;5114838;28;20027;-47
2022/06/18 09:21:41;;;;;;;5.03;2.03;;;25.10;63.80;;;;;;5091948;28;20115;-46
2022/06/18 09:24:14;;;;;;;6.60;2.72;;;25.30;63.50;;;;;;5109404;28;20536;-47
2022/06/18 09:26:44;;;;;;;6.03;2.17;;;25.50;63.70;;;;;;5122138;28;20117;-46
2022/06/18 09:29:24;;;;;;;7.15;1.95;;;24.90;64.00;;;;;;5125673;28;20440;-47
2022/06/18 09:31:59;;;;;;;4.65;1.95;;;24.90;64.60;;;;;;5117506;28;20028;-50
2022/06/18 09:34:49;;;;;;;5.40;1.58;;;24.60;64.80;;;;;;5093048;28;20027;-46
2022/06/18 09:37:23;;;;;;;6.70;1.92;;;24.90;65.30;;;;;;5125908;28;20786;-47
2022/06/18 09:39:58;;;;;;;3.08;1.10;;;25.10;64.90;;;;;;5128196;28;20019;-49
2022/06/18 09:43:11;;;;;;;5.57;1.73;;;25.30;63.80;;;;;;5111662;28;20024;-52
2022/06/18 09:45:43;;;;;;;6.60;1.95;;;25.60;62.30;;;;;;5101269;28;20111;-51
2022/06/18 09:48:12;;;;;;;3.50;1.30;;;25.70;62.10;;;;;;5111270;28;20035;-50
2022/06/18 09:50:58;;;;;;;4.15;1.80;;;25.80;63.40;;;;;;5090633;28;20075;-47
2022/06/18 09:53:34;;;;;;;2.40;0.85;;;25.80;62.40;;;;;;5111562;28;20477;-48
2022/06/18 09:56:17;;;;;;;3.22;1.40;;;25.70;62.20;;;;;;5108210;28;20356;-46
2022/06/18 09:58:49;;;;;;;2.97;1.08;;;25.50;62.00;;;;;;5119392;28;20138;-49
2022/06/18 10:01:20;;;;;;;3.33;0.90;;;25.40;61.30;;;;;;5122483;28;20102;-48
2022/06/18 10:09:32;;;;;;;3.10;1.45;;;25.40;61.90;;;;;;5113108;28;20050;-46
2022/06/18 10:12:23;;;;;;;4.00;0.80;;;25.30;62.40;;;;;;5107269;28;20071;-47
2022/06/18 10:15:03;;;;;;;2.70;0.90;;;25.40;61.40;;;;;;5112113;28;20039;-46
2022/06/18 10:17:47;;;;;;;2.83;1.00;;;25.60;60.80;;;;;;5123846;27;20029;-46
2022/06/18 10:20:40;;;;;;;3.20;1.30;;;25.60;60.30;;;;;;5127090;27;20023;-47
2022/06/18 10:23:35;;;;;;;3.10;1.30;;;25.50;60.80;;;;;;5130962;27;20024;-51
2022/06/18 10:26:30;;;;;;;3.58;1.13;;;25.10;60.90;;;;;;5111823;27;20173;-47
2022/06/18 10:29:14;;;;;;;2.78;1.23;;;24.90;62.10;;;;;;5127256;27;20023;-46
2022/06/18 10:32:07;;;;;;;3.33;1.20;;;24.70;62.80;;;;;;5124994;27;20097;-46
2022/06/18 10:35:16;;;;;;;3.08;0.85;;;24.80;63.90;;;;;;5111779;28;20428;-47
2022/06/18 10:38:08;;;;;;;2.40;0.90;;;25.10;63.20;;;;;;5127172;27;20116;-48
2022/06/18 10:40:55;;;;;;;2.72;1.02;;;25.30;61.40;;;;;;5095408;28;20277;-49
2022/06/18 10:43:48;;;;;;;3.53;1.45;;;25.30;60.30;;;;;;5093381;28;20019;-47
2022/06/18 10:46:18;;;;;;;3.80;1.33;;;25.40;61.30;;;;;;5111465;28;20030;-50
2022/06/18 10:48:54;;;;;;;3.90;1.35;;;25.20;60.50;;;;;;5093712;27;20054;-48
2022/06/18 10:51:29;;;;;;;3.95;1.17;;;25.00;61.90;;;;;;5111194;28;20055;-46
2022/06/18 10:54:00;;;;;;;3.58;1.48;;;24.90;61.80;;;;;;5110576;27;20040;-48
2022/06/18 10:56:33;;;;;;;3.45;1.63;;;25.10;61.70;;;;;;5111470;28;20024;-46
2022/06/18 10:59:03;;;;;;;4.60;1.98;;;24.70;61.60;;;;;;5110944;28;20444;-47
2022/06/18 11:01:38;;;;;;;4.60;1.42;;;24.60;64.00;;;;;;5113359;27;20051;-47
2022/06/18 11:04:28;;;;;;;5.63;2.10;;;24.60;62.50;;;;;;5092464;28;20482;-47
2022/06/18 11:07:02;;;;;;;6.28;1.58;;;24.60;62.90;;;;;;5110893;27;20175;-47
2022/06/18 11:09:36;;;;;;;4.53;1.55;;;24.80;62.50;;;;;;5095436;27;20039;-47
2022/06/18 11:12:18;;;;;;;2.88;1.30;;;25.10;62.20;;;;;;5113489;27;20087;-49
2022/06/18 11:14:49;;;;;;;5.90;1.80;;;25.10;61.30;;;;;;5130344;27;20371;-47
2022/06/18 11:17:43;;;;;;;4.65;1.63;;;24.90;62.80;;;;;;5114798;27;20592;-46
2022/06/18 11:20:29;;;;;;;5.15;1.63;;;24.80;62.30;;;;;;5109579;28;20608;-48
2022/06/18 11:23:16;;;;;;;5.22;1.33;;;24.90;61.70;;;;;;5117688;27;20364;-47
2022/06/18 11:26:01;;;;;;;5.13;1.73;;;24.90;61.10;;;;;;5120530;27;20030;-47
2022/06/18 11:28:42;;;;;;;3.58;1.23;;;24.40;61.50;;;;;;5123491;27;20063;-46
2022/06/18 11:31:13;;;;;;;4.78;1.67;;;24.50;61.00;;;;;;5120894;27;20040;-46
2022/06/18 11:34:07;;;;;;;6.18;1.95;;;24.50;60.00;;;;;;5110005;27;20030;-47
2022/06/18 11:36:49;;;;;;;3.60;1.40;;;24.90;60.00;;;;;;5118935;27;20035;-47
2022/06/18 11:39:33;;;;;;;6.22;1.30;;;24.60;61.80;;;;;;5104707;27;20553;-48
2022/06/18 11:42:18;;;;;;;3.72;1.13;;;24.70;60.70;;;;;;5123709;27;20030;-47
2022/06/18 11:45:17;;;;;;;2.42;0.82;;;24.90;60.50;;;;;;5094775;27;20039;-48
2022/06/18 11:47:53;;;;;;;5.47;1.83;;;24.40;61.70;;;;;;5118383;27;20029;-46
2022/06/18 11:51:15;;;;;;;4.40;1.27;;;24.20;59.30;;;;;;5114766;27;20027;-48
2022/06/18 11:54:07;;;;;;;4.00;1.45;;;23.60;61.50;;;;;;5007654;28;20054;-46
2022/06/18 11:56:54;;;;;;;4.68;1.83;;;23.40;62.70;;;;;;5097009;27;20180;-48
2022/06/18 11:59:37;;;;;;;6.15;2.70;;;23.40;64.40;;;;;;5098410;28;20023;-47
2022/06/18 12:02:11;;;;;;;5.43;2.78;;;23.80;64.00;;;;;;5107707;28;20034;-46
2022/06/18 12:05:06;;;;;;;8.80;2.00;;;23.90;63.00;;;;;;5106514;28;20420;-46
2022/06/18 12:07:40;;;;;;;6.38;2.20;;;23.90;60.40;;;;;;5106960;28;20100;-46
2022/06/18 12:10:13;;;;;;;7.45;3.30;;;23.60;62.80;;;;;;5091401;28;20627;-47
2022/06/18 12:12:58;;;;;;;7.68;2.08;;;23.70;61.90;;;;;;5088873;28;20835;-45
2022/06/18 12:15:48;;;;;;;6.80;1.85;;;23.60;60.70;;;;;;5110353;28;20028;-47
2022/06/18 12:18:24;;;;;;;5.38;1.80;;;23.50;61.00;;;;;;5092146;28;20042;-50
2022/06/18 12:21:09;;;;;;;6.53;1.55;;;23.50;61.40;;;;;;5072010;28;20076;-49
2022/06/18 12:23:40;;;;;;;9.50;5.63;;;23.40;60.10;;;;;;5092015;28;20019;-48
2022/06/18 12:26:49;;;;;;;5.95;2.35;;;23.50;60.60;;;;;;5109840;28;20080;-46
2022/06/18 12:29:37;;;;;;;6.70;2.50;;;23.40;60.50;;;;;;5076185;28;20460;-47
2022/06/18 12:32:41;;;;;;;3.47;1.20;;;23.20;59.90;;;;;;5076943;28;20036;-45
2022/06/18 12:35:42;;;;;;;5.57;1.75;;;23.10;61.30;;;;;;5084570;28;20108;-46
2022/06/18 12:38:29;;;;;;;5.30;1.98;;;23.10;61.20;;;;;;5089230;28;20264;-45
2022/06/18 12:41:07;;;;;;;6.82;1.95;;;22.90;60.10;;;;;;5093514;28;20020;-46
2022/06/18 12:44:03;;;;;;;4.93;1.60;;;22.90;59.80;;;;;;5092204;28;20031;-46
2022/06/18 12:46:43;;;;;;;10.32;2.00;;;22.90;59.80;;;;;;5089525;28;20055;-46
2022/06/18 12:49:55;;;;;;;7.10;2.30;;;23.00;60.80;;;;;;5088899;28;20028;-48
2022/06/18 12:52:58;;;;;;;8.80;2.28;;;22.90;61.50;;;;;;5078566;28;20028;-46
2022/06/18 12:56:18;;;;;;;4.18;1.17;;;22.80;59.10;;;;;;5123108;27;20047;-45
2022/06/18 12:59:07;;;;;;;5.63;1.60;;;22.60;60.30;;;;;;5026070;28;20073;-46
2022/06/18 13:01:57;;;;;;;5.55;1.30;;;22.50;60.70;;;;;;5027382;28;20037;-46
2022/06/18 13:05:02;;;;;;;5.20;1.52;;;22.50;60.30;;;;;;5026834;28;20041;-45
2022/06/18 13:08:08;;;;;;;8.63;1.67;;;22.70;61.20;;;;;;5027315;28;20052;-46
2022/06/18 13:11:01;;;;;;;8.45;1.92;;;22.40;60.00;;;;;;5005709;28;20442;-46
2022/06/18 13:14:03;;;;;;;10.80;2.03;;;22.40;62.60;;;;;;5022445;28;20053;-46
2022/06/18 13:16:42;;;;;;;9.05;1.98;;;22.50;61.40;;;;;;5007131;28;20095;-46
2022/06/18 13:19:27;;;;;;;6.70;2.10;;;22.40;61.50;;;;;;5023563;28;20128;-46
2022/06/18 13:21:55;;;;;;;5.65;1.50;;;22.30;62.30;;;;;;5027065;28;20034;-47
2022/06/18 13:30:52;;;;;;;7.38;1.70;;;22.00;61.20;;;;;;5007425;28;20041;-48
2022/06/18 13:33:57;;;;;;;8.90;2.47;;;21.90;62.60;;;;;;5067041;28;20071;-48
2022/06/18 13:37:07;;;;;;;9.63;2.50;;;21.90;61.70;;;;;;5117681;28;20035;-48
2022/06/18 13:39:51;;;;;;;9.45;1.98;;;21.70;63.90;;;;;;5083353;28;20054;-49
2022/06/18 13:42:56;;;;;;;9.50;1.90;;;21.60;61.60;;;;;;5128300;28;20027;-50
2022/06/18 13:45:34;;;;;;;7.65;1.95;;;21.50;63.60;;;;;;5109346;28;20045;-46
2022/06/18 13:48:25;;;;;;;9.70;2.58;;;21.50;62.30;;;;;;5093511;28;20113;-45
2022/06/18 13:50:53;;;;;;;11.90;3.28;;;21.50;62.50;;;;;;5113124;28;20065;-46